Time;durP1;ratioP1;P1;durP2;ratioP2;P2;SDS_P1;SDS_P2;PMS_P1;PMS_P2;Temp;Humidity;BMP_temperature;BMP_pressure;BME280_temperature;BME280_humidity;BME280_pressure;Samples;Min_cycle;Max_cycle;Signal;HPM_P1;HPM_P2
2021/11/18 00:02:02;;;;;;;;;46.00;37.00;;;;;12.18;82.48;101778.03;146608;577;46017;-74
2021/11/18 00:04:36;;;;;;;;;49.00;38.50;;;;;12.17;82.44;101781.47;146613;569;46020;-74
2021/11/18 00:07:10;;;;;;;;;51.75;39.25;;;;;12.16;82.42;101774.47;146609;611;46010;-74
2021/11/18 00:09:43;;;;;;;;;46.50;38.00;;;;;12.17;82.64;101771.06;146618;754;46010;-70
2021/11/18 00:12:17;;;;;;;;;54.75;42.50;;;;;12.18;82.71;101778.03;146610;632;46016;-70
2021/11/18 00:14:53;;;;;;;;;44.75;37.25;;;;;12.17;83.13;101777.16;146609;564;47008;-71
2021/11/18 00:17:27;;;;;;;;;50.00;40.25;;;;;12.18;82.92;101773.78;146609;618;47012;-70
2021/11/18 00:20:01;;;;;;;;;52.75;42.00;;;;;12.18;82.83;101778.03;146613;615;46020;-69
2021/11/18 00:22:35;;;;;;;;;53.00;43.00;;;;;12.18;82.80;101778.03;146610;567;46016;-72
2021/11/18 00:25:10;;;;;;;;;47.50;38.50;;;;;12.18;82.88;101776.37;146614;607;46021;-73
2021/11/18 00:27:45;;;;;;;;;48.50;38.25;;;;;12.20;82.69;101786.84;146610;596;46016;-72
2021/11/18 00:30:19;;;;;;;;;48.75;39.00;;;;;12.21;82.79;101780.84;146610;581;46020;-73
2021/11/18 00:32:56;;;;;;;;;48.00;38.75;;;;;12.22;83.11;101785.25;146610;563;46907;-73
2021/11/18 00:35:32;;;;;;;;;42.25;34.50;;;;;12.23;83.37;101782.72;146614;569;46020;-73
2021/11/18 00:38:06;;;;;;;;;41.00;35.25;;;;;12.21;83.09;101784.34;146608;641;46017;-73
2021/11/18 00:40:43;;;;;;;;;40.25;35.50;;;;;12.21;82.89;101781.75;146617;595;45022;-74
2021/11/18 00:43:19;;;;;;;;;48.75;40.00;;;;;12.23;82.92;101789.63;146611;563;46016;-74
2021/11/18 00:45:54;;;;;;;;;45.00;37.75;;;;;12.23;83.26;101782.72;146614;602;46008;-72
2021/11/18 00:48:28;;;;;;;;;43.00;37.75;;;;;12.23;83.46;101779.22;146609;588;46016;-72
2021/11/18 00:51:05;;;;;;;;;51.25;41.75;;;;;12.21;83.40;101783.44;146617;563;46010;-71
2021/11/18 00:53:42;;;;;;;;;54.50;43.25;;;;;12.18;83.46;101785.84;146612;606;46017;-71
2021/11/18 00:56:17;;;;;;;;;50.25;39.25;;;;;12.16;83.46;101779.69;146612;604;45020;-71
2021/11/18 00:58:56;;;;;;;;;56.75;45.00;;;;;12.16;83.52;101790.06;146608;579;46016;-72
2021/11/18 01:01:35;;;;;;;;;51.50;42.25;;;;;12.15;83.65;101783.06;146611;564;46021;-72
2021/11/18 01:04:09;;;;;;;;;48.25;39.00;;;;;12.14;83.39;101783.88;146611;573;46016;-74
2021/11/18 01:06:43;;;;;;;;;52.25;41.50;;;;;12.13;83.40;101784.69;146611;616;46020;-73
2021/11/18 01:09:17;;;;;;;;;52.00;41.00;;;;;12.13;83.33;101795.97;146610;578;46010;-72
2021/11/18 01:11:51;;;;;;;;;48.75;41.25;;;;;11.21;83.11;101625.63;146615;619;46008;-72
2021/11/18 01:14:26;;;;;;;;;52.00;43.00;;;;;12.18;83.07;101798.84;146612;571;46022;-72
2021/11/18 01:17:01;;;;;;;;;52.25;41.00;;;;;12.19;82.96;101795.47;146614;583;46027;-71
2021/11/18 01:19:37;;;;;;;;;49.25;39.50;;;;;12.19;83.51;101783.34;146611;575;46010;-70
2021/11/18 01:22:13;;;;;;;;;46.50;36.50;;;;;12.18;83.38;101784.16;146614;574;45021;-69
2021/11/18 01:24:48;;;;;;;;;41.25;33.75;;;;;12.19;83.01;101790.25;146609;612;46016;-71
2021/11/18 01:27:22;;;;;;;;;43.50;36.50;;;;;12.18;83.09;101781.56;146618;571;46020;-71
2021/11/18 01:29:56;;;;;;;;;48.25;37.00;;;;;12.14;83.39;101784.75;146610;597;46011;-69
2021/11/18 01:32:30;;;;;;;;;51.25;42.25;;;;;12.14;83.06;101783.88;146615;617;46008;-72
2021/11/18 01:35:04;;;;;;;;;49.50;41.00;;;;;12.16;82.95;101790.97;146612;605;46010;-71
2021/11/18 01:37:39;;;;;;;;;46.00;37.75;;;;;12.18;82.93;101788.44;146613;599;46021;-71
2021/11/18 01:40:15;;;;;;;;;42.75;36.75;;;;;12.21;82.82;101786.03;146609;611;46016;-71
2021/11/18 01:42:50;;;;;;;;;49.50;39.00;;;;;12.23;82.91;101787.03;146614;591;46020;-71
2021/11/18 01:45:27;;;;;;;;;48.50;39.25;;;;;12.27;83.12;101789.00;146610;634;46010;-71
2021/11/18 01:48:01;;;;;;;;;46.75;38.50;;;;;12.29;83.49;101787.41;146611;565;46010;-71
2021/11/18 01:50:37;;;;;;;;;44.00;36.25;;;;;12.27;83.22;101778.59;146609;572;46010;-72
2021/11/18 01:53:16;;;;;;;;;49.00;38.75;;;;;12.25;83.43;101782.84;146611;601;46009;-71
2021/11/18 01:55:51;;;;;;;;;41.25;34.50;;;;;12.24;83.26;101779.34;146608;591;46016;-72
2021/11/18 01:58:25;;;;;;;;;36.25;31.75;;;;;12.25;83.20;101782.84;146615;584;46008;-71
2021/11/18 02:01:02;;;;;;;;;44.00;36.75;;;;;12.25;83.30;101788.94;146612;668;46017;-71
2021/11/18 02:03:36;;;;;;;;;40.25;34.25;;;;;12.26;83.49;101797.62;146613;591;46020;-73
2021/11/18 02:06:37;;;;;;;;;46.25;37.75;;;;;12.28;82.96;101802.94;146613;565;46018;-73
2021/11/18 02:09:17;;;;;;;;;36.25;30.50;;;;;12.28;83.36;101800.34;146617;617;46010;-73
2021/11/18 02:12:01;;;;;;;;;39.25;32.25;;;;;12.28;82.75;101797.75;146608;649;46016;-75
2021/11/18 02:14:36;;;;;;;;;36.75;32.00;;;;;12.32;82.96;101797.13;146613;622;45021;-70
2021/11/18 02:17:14;;;;;;;;;34.25;31.25;;;;;12.33;82.68;101812.78;146612;602;46016;-71
2021/11/18 02:19:58;;;;;;;;;41.50;34.00;;;;;12.34;82.28;101804.22;146615;584;47012;-71
2021/11/18 02:22:34;;;;;;;;;37.75;33.25;;;;;12.35;82.38;101805.09;146609;590;46016;-71
2021/11/18 02:25:14;;;;;;;;;36.50;32.00;;;;;12.33;82.35;101810.19;146616;591;47008;-71
2021/11/18 02:27:48;;;;;;;;;40.00;33.25;;;;;12.33;82.20;101807.59;146610;659;46016;-72
2021/11/18 02:30:23;;;;;;;;;40.75;34.75;;;;;12.31;82.23;101805.72;146613;586;46021;-71
2021/11/18 02:32:59;;;;;;;;;41.25;34.00;;;;;12.30;82.46;101797.00;146612;578;46023;-72
2021/11/18 02:35:36;;;;;;;;;40.00;34.50;;;;;12.28;82.49;101784.75;146615;684;45021;-71
2021/11/18 02:38:11;;;;;;;;;44.50;33.75;;;;;12.25;82.78;101778.53;146609;595;46010;-72
2021/11/18 02:40:45;;;;;;;;;44.25;35.00;;;;;12.21;82.63;101786.97;146613;703;46020;-71
2021/11/18 02:43:19;;;;;;;;;43.25;35.00;;;;;12.18;82.69;101775.44;146607;699;47011;-71
2021/11/18 02:45:55;;;;;;;;;38.25;32.50;;;;;12.18;82.99;101785.84;146613;614;46020;-71
2021/11/18 02:48:29;;;;;;;;;35.00;32.25;;;;;12.19;82.57;101790.25;146609;670;46016;-71
2021/11/18 02:51:06;;;;;;;;;37.50;32.00;;;;;12.19;82.84;101785.06;146615;593;46026;-71
2021/11/18 02:53:41;;;;;;;;;45.00;34.25;;;;;12.18;82.45;101781.56;146612;641;46032;-70
2021/11/18 02:56:16;;;;;;;;;40.25;33.25;;;;;12.18;82.62;101789.37;146614;569;46008;-71
2021/11/18 02:58:51;;;;;;;;;42.75;33.75;;;;;12.18;82.36;101793.66;146609;641;46017;-70
2021/11/18 03:01:29;;;;;;;;;42.00;33.25;;;;;12.17;82.16;101797.06;146616;571;46020;-70
2021/11/18 03:04:04;;;;;;;;;45.00;34.50;;;;;12.16;82.41;101780.56;146609;612;46016;-70
2021/11/18 03:06:38;;;;;;;;;44.50;34.50;;;;;12.10;82.40;101787.09;146612;606;46021;-72
2021/11/18 03:09:13;;;;;;;;;44.50;36.00;;;;;12.05;82.23;101792.00;146610;613;46012;-70
2021/11/18 03:11:46;;;;;;;;;41.50;35.00;;;;;12.00;82.35;101803.81;146614;612;46008;-72
2021/11/18 03:14:20;;;;;;;;;39.75;33.50;;;;;11.95;82.64;101790.53;146610;579;46017;-81
2021/11/18 03:16:54;;;;;;;;;38.75;32.25;;;;;11.88;82.38;101785.75;146612;573;46020;-74
2021/11/18 03:19:28;;;;;;;;;37.25;29.25;;;;;11.85;82.61;101793.34;146609;675;46016;-75
2021/11/18 03:22:02;;;;;;;;;32.25;28.50;;;;;11.83;82.64;101787.13;146616;606;46026;-74
2021/11/18 03:24:36;;;;;;;;;33.00;29.00;;;;;11.79;82.67;101778.25;146612;722;46010;-74
2021/11/18 03:27:10;;;;;;;;;29.00;25.75;;;;;11.78;82.37;101784.25;146613;599;46020;-81
2021/11/18 03:29:45;;;;;;;;;29.25;28.25;;;;;11.76;82.60;101788.44;146608;607;46017;-82
2021/11/18 03:32:19;;;;;;;;;31.00;28.50;;;;;11.74;82.55;101786.53;146610;609;46020;-82
2021/11/18 03:34:54;;;;;;;;;32.75;27.25;;;;;11.74;82.68;101779.66;146612;581;46010;-81
2021/11/18 03:37:28;;;;;;;;;30.75;24.25;;;;;11.75;82.54;101775.38;146617;592;46008;-78
2021/11/18 03:40:03;;;;;;;;;28.00;24.50;;;;;11.75;82.80;101783.16;146612;598;46021;-78
2021/11/18 03:42:36;;;;;;;;;33.25;30.25;;;;;11.71;82.56;101788.94;146615;566;46008;-71
2021/11/18 03:45:13;;;;;;;;;32.75;27.50;;;;;11.67;83.09;101786.97;146611;569;47010;-71
2021/11/18 03:47:47;;;;;;;;;31.50;29.00;;;;;11.61;83.12;101777.06;146617;563;46020;-72
2021/11/18 03:50:22;;;;;;;;;33.50;31.75;;;;;11.55;83.18;101774.97;146609;608;46018;-72
2021/11/18 03:52:56;;;;;;;;;30.50;28.50;;;;;11.53;83.29;101784.38;146617;589;46008;-72
2021/11/18 03:55:30;;;;;;;;;32.75;28.50;;;;;11.51;83.43;101780.78;146610;582;46010;-72
2021/11/18 03:58:06;;;;;;;;;32.25;26.75;;;;;11.50;83.11;101772.91;146613;602;46021;-72
2021/11/18 04:00:42;;;;;;;;;30.00;25.50;;;;;11.50;83.37;101773.78;146614;613;45020;-72
2021/11/18 04:03:17;;;;;;;;;31.75;28.00;;;;;11.49;83.56;101771.97;146611;601;46020;-71
2021/11/18 04:05:51;;;;;;;;;31.25;26.75;;;;;11.51;83.60;101782.47;146610;646;46016;-73
2021/11/18 04:08:26;;;;;;;;;29.75;27.00;;;;;10.56;83.84;101605.03;146613;569;46020;-72
2021/11/18 04:11:00;;;;;;;;;34.75;30.25;;;;;11.54;83.43;101773.19;146606;634;48018;-72
2021/11/18 04:13:35;;;;;;;;;33.00;29.75;;;;;11.56;83.60;101779.37;146614;639;46021;-73
2021/11/18 04:16:09;;;;;;;;;29.50;23.75;;;;;11.60;83.45;101783.06;146610;569;47010;-74
2021/11/18 04:18:42;;;;;;;;;27.75;26.00;;;;;11.61;83.55;101773.56;146617;580;45021;-75
2021/11/18 04:21:17;;;;;;;;;30.25;28.50;;;;;11.64;83.56;101786.75;146608;569;47010;-74
2021/11/18 04:23:51;;;;;;;;;35.75;30.00;;;;;11.64;83.14;101778.97;146608;586;46008;-75
2021/11/18 04:26:29;;;;;;;;;34.00;30.50;;;;;11.65;83.39;101780.75;146610;586;46010;-70
2021/11/18 04:29:04;;;;;;;;;31.25;27.00;;;;;11.64;83.99;101773.78;146617;593;45021;-71
2021/11/18 04:31:38;;;;;;;;;30.50;27.50;;;;;11.61;83.94;101779.66;146612;747;46016;-71
2021/11/18 04:34:12;;;;;;;;;39.25;32.50;;;;;11.59;84.06;101770.91;146618;590;45022;-71
2021/11/18 04:36:46;;;;;;;;;37.50;32.00;;;;;11.56;83.78;101778.50;146609;590;47021;-70
2021/11/18 04:39:20;;;;;;;;;33.75;29.00;;;;;11.57;83.54;101775.97;146613;593;47008;-70
2021/11/18 04:41:54;;;;;;;;;30.00;26.75;;;;;11.59;83.72;101775.16;146611;569;46010;-70
2021/11/18 04:44:28;;;;;;;;;35.00;27.50;;;;;11.64;83.62;101781.56;146613;583;46008;-70
2021/11/18 04:47:04;;;;;;;;;38.25;28.00;;;;;11.65;83.44;101778.16;146612;702;45020;-71
2021/11/18 04:49:39;;;;;;;;;25.50;24.50;;;;;11.66;83.87;101774.78;146611;587;46012;-69
2021/11/18 04:52:13;;;;;;;;;29.75;25.50;;;;;11.65;83.77;101772.97;146609;582;46016;-69
2021/11/18 04:54:51;;;;;;;;;28.50;24.75;;;;;11.62;83.70;101773.69;146608;612;46020;-69
2021/11/18 04:57:28;;;;;;;;;30.25;24.00;;;;;11.64;84.01;101771.16;146612;577;46016;-69
2021/11/18 05:00:02;;;;;;;;;30.75;26.50;;;;;11.64;83.43;101760.78;146614;697;46008;-71
2021/11/18 05:02:36;;;;;;;;;27.25;26.25;;;;;11.62;83.70;101758.09;146610;655;46016;-70
2021/11/18 05:05:12;;;;;;;;;25.00;22.50;;;;;11.59;83.82;101763.09;146615;633;46008;-70
2021/11/18 05:07:46;;;;;;;;;29.00;28.25;;;;;11.57;83.64;101762.09;146611;599;46016;-70
2021/11/18 05:10:21;;;;;;;;;28.25;26.50;;;;;10.62;83.62;101608.94;146615;569;45020;-70
2021/11/18 05:12:55;;;;;;;;;25.75;23.50;;;;;11.60;83.39;101775.28;146609;611;46017;-70
2021/11/18 05:15:33;;;;;;;;;24.75;24.00;;;;;11.62;83.20;101775.38;146612;600;46020;-77
2021/11/18 05:18:08;;;;;;;;;25.00;24.50;;;;;11.64;83.07;101774.66;146609;564;47907;-75
2021/11/18 05:20:43;;;;;;;;;29.00;27.00;;;;;11.62;83.04;101775.38;146615;598;45021;-79
2021/11/18 05:23:18;;;;;;;;;29.25;25.50;;;;;11.59;82.97;101783.88;146612;616;46028;-72
2021/11/18 05:25:52;;;;;;;;;26.00;22.25;;;;;11.55;83.12;101782.75;146613;636;46008;-73
2021/11/18 05:28:27;;;;;;;;;27.75;21.50;;;;;11.48;83.32;101787.47;146608;691;46016;-73
2021/11/18 05:31:01;;;;;;;;;27.75;24.00;;;;;11.42;82.72;101790.56;146614;632;47008;-76
2021/11/18 05:33:35;;;;;;;;;30.25;26.50;;;;;11.39;83.07;101792.09;146610;626;47010;-76
2021/11/18 05:36:09;;;;;;;;;32.00;25.25;;;;;11.38;83.04;101791.19;146612;587;47008;-68
2021/11/18 05:38:43;;;;;;;;;24.50;22.00;;;;;11.37;82.99;101804.97;146611;615;46016;-67
2021/11/18 05:41:19;;;;;;;;;23.00;22.00;;;;;11.39;82.90;101800.75;146610;672;46008;-67
2021/11/18 05:44:01;;;;;;;;;24.00;22.25;;;;;11.45;83.49;101806.34;146610;573;46016;-68
2021/11/18 05:46:39;;;;;;;;;28.00;23.75;;;;;11.52;82.81;101812.84;146612;581;46020;-72
2021/11/18 05:49:13;;;;;;;;;27.75;24.75;;;;;11.56;82.76;101810.56;146610;602;46017;-72
2021/11/18 05:51:48;;;;;;;;;28.75;24.75;;;;;11.65;82.50;101812.84;146618;579;46027;-71
2021/11/18 05:54:22;;;;;;;;;29.50;25.75;;;;;11.87;82.53;101809.03;146613;572;45016;-71
2021/11/18 05:56:56;;;;;;;;;28.00;24.50;;;;;12.04;81.85;101795.41;146614;612;46008;-71
2021/11/18 05:59:30;;;;;;;;;27.50;25.25;;;;;12.14;81.28;101799.47;146610;621;46016;-71
2021/11/18 06:02:04;;;;;;;;;27.50;22.25;;;;;12.25;81.48;101806.25;146615;575;46008;-71
2021/11/18 06:04:38;;;;;;;;;25.25;21.00;;;;;12.43;80.37;101815.19;146610;609;46907;-71
2021/11/18 06:07:12;;;;;;;;;31.25;25.75;;;;;12.57;80.11;101818.59;146615;570;46020;-69
2021/11/18 06:09:46;;;;;;;;;21.75;18.50;;;;;12.72;79.62;101816.03;146611;624;46010;-68
2021/11/18 06:12:20;;;;;;;;;18.00;18.00;;;;;12.87;79.30;101821.25;146615;632;46021;-68
2021/11/18 06:14:54;;;;;;;;;19.75;18.00;;;;;13.01;78.30;101827.28;146612;572;46025;-69
2021/11/18 06:17:28;;;;;;;;;21.00;18.50;;;;;13.05;77.88;101822.34;146618;570;46025;-69
2021/11/18 06:20:02;;;;;;;;;28.50;21.50;;;;;13.13;78.47;101835.81;146615;617;46010;-69
2021/11/18 06:22:36;;;;;;;;;18.50;17.25;;;;;13.37;78.38;101837.25;146615;617;46012;-71
2021/11/18 06:25:11;;;;;;;;;19.00;18.00;;;;;13.83;78.14;101842.50;146614;569;46011;-71
2021/11/18 06:27:48;;;;;;;;;22.25;18.25;;;;;14.38;77.50;101841.97;146617;586;46009;-71
2021/11/18 06:30:36;;;;;;;;;32.50;29.00;;;;;15.02;76.44;101845.38;146613;595;46016;-72
2021/11/18 06:33:10;;;;;;;;;35.75;31.75;;;;;15.54;74.10;101841.84;146611;576;46009;-71
2021/11/18 06:35:45;;;;;;;;;38.00;33.00;;;;;15.92;73.13;101842.84;146614;637;46010;-70
2021/11/18 06:38:20;;;;;;;;;40.50;32.75;;;;;16.10;71.13;101837.56;146613;575;46020;-69
2021/11/18 06:40:55;;;;;;;;;44.50;33.75;;;;;16.17;70.43;101848.41;146608;582;46017;-72
2021/11/18 06:43:29;;;;;;;;;39.25;34.25;;;;;16.20;69.83;101857.19;146611;588;46020;-71
2021/11/18 06:46:03;;;;;;;;;36.50;31.50;;;;;16.11;70.08;101853.34;146609;609;46010;-73
2021/11/18 06:48:38;;;;;;;;;38.75;32.00;;;;;16.00;70.39;101846.69;146618;735;46008;-72
2021/11/18 06:51:20;;;;;;;;;43.00;33.25;;;;;15.86;69.42;101845.16;146610;617;46010;-77
2021/11/18 06:53:55;;;;;;;;;48.00;36.50;;;;;15.68;69.30;101839.94;146613;565;46020;-78
2021/11/18 06:56:33;;;;;;;;;46.00;37.25;;;;;15.46;71.10;101836.25;146612;576;45907;-79
2021/11/18 06:59:08;;;;;;;;;41.00;35.25;;;;;15.38;71.15;101850.66;146610;598;46010;-72
2021/11/18 07:01:42;;;;;;;;;39.00;34.50;;;;;15.27;71.37;101853.56;146611;600;46016;-76
2021/11/18 07:04:16;;;;;;;;;35.25;30.50;;;;;15.12;71.75;101851.97;146611;575;46020;-74
2021/11/18 07:06:50;;;;;;;;;38.00;33.50;;;;;15.08;73.40;101849.09;146608;611;47010;-74
2021/11/18 07:09:24;;;;;;;;;42.00;35.50;;;;;15.24;73.50;101855.19;146614;626;46020;-73
2021/11/18 07:11:58;;;;;;;;;44.50;36.00;;;;;15.56;72.62;101855.00;146610;627;46017;-73
2021/11/18 07:14:32;;;;;;;;;40.75;34.75;;;;;15.94;72.85;101849.91;146612;621;46008;-72
2021/11/18 07:17:07;;;;;;;;;45.75;37.25;;;;;16.32;70.86;101853.44;146610;627;47011;-72
2021/11/18 07:19:41;;;;;;;;;47.50;38.00;;;;;16.62;69.79;101859.16;146614;564;46020;-72
2021/11/18 07:22:15;;;;;;;;;44.25;33.50;;;;;16.82;69.88;101847.00;146611;566;46010;-75
2021/11/18 07:24:51;;;;;;;;;40.00;31.75;;;;;17.03;67.99;101846.09;146610;633;46020;-75
2021/11/18 07:27:25;;;;;;;;;31.00;26.00;;;;;17.22;68.04;101843.44;146610;569;46016;-73
2021/11/18 07:29:59;;;;;;;;;34.75;30.00;;;;;17.43;67.81;101832.94;146618;615;46017;-71
2021/11/18 07:32:33;;;;;;;;;29.75;27.25;;;;;17.60;67.29;101837.97;146610;609;46029;-69
2021/11/18 07:35:08;;;;;;;;;31.00;27.00;;;;;17.67;67.34;101835.66;146616;665;46020;-73
2021/11/18 07:37:42;;;;;;;;;31.75;29.50;;;;;17.72;66.42;101834.09;146611;615;46016;-69
2021/11/18 07:40:19;;;;;;;;;26.25;23.25;;;;;17.77;65.36;101839.59;146618;583;46010;-70
2021/11/18 07:42:54;;;;;;;;;23.50;20.50;;;;;17.78;66.75;101841.38;146610;569;46016;-69
2021/11/18 07:45:31;;;;;;;;;21.50;19.00;;;;;17.85;64.84;101838.16;146612;618;46010;-78
2021/11/18 07:48:05;;;;;;;;;27.50;25.50;;;;;17.91;65.78;101840.13;146612;595;47907;-73
2021/11/18 07:50:39;;;;;;;;;28.00;22.75;;;;;18.00;65.89;101851.84;146615;573;45020;-73
2021/11/18 07:53:14;;;;;;;;;27.25;23.50;;;;;18.17;66.63;101849.00;146610;575;46016;-73
2021/11/18 07:55:49;;;;;;;;;34.00;31.25;;;;;18.29;64.24;101846.84;146616;585;46021;-75
2021/11/18 07:58:24;;;;;;;;;32.00;29.75;;;;;18.35;64.88;101847.09;146611;586;46010;-74
2021/11/18 08:00:58;;;;;;;;;23.50;22.75;;;;;18.37;63.50;101844.50;146612;618;46020;-82
2021/11/18 08:03:34;;;;;;;;;22.00;17.75;;;;;18.36;64.11;101859.38;146609;572;46016;-83
2021/11/18 08:06:09;;;;;;;;;21.00;17.50;;;;;18.32;64.20;101860.09;146616;579;46008;-84
2021/11/18 08:08:51;;;;;;;;;15.25;14.25;;;;;18.31;63.84;101866.16;146613;586;46010;-78
2021/11/18 08:11:38;;;;;;;;;18.25;16.00;;;;;18.32;64.72;101862.72;146614;577;45051;-78
2021/11/18 08:14:14;;;;;;;;;17.00;15.50;;;;;18.32;62.50;101857.47;146614;569;47018;-79
2021/11/18 08:16:49;;;;;;;;;18.50;16.50;;;;;18.33;63.74;101861.88;146616;635;46026;-77
2021/11/18 08:19:23;;;;;;;;;13.25;12.25;;;;;18.36;63.60;101871.59;146613;586;46016;-77
2021/11/18 08:21:59;;;;;;;;;18.75;15.75;;;;;18.43;63.75;101871.88;146615;571;46020;-79
2021/11/18 08:24:33;;;;;;;;;19.50;15.75;;;;;18.57;64.28;101871.53;146614;681;46016;-78
2021/11/18 08:27:07;;;;;;;;;15.25;14.25;;;;;18.70;62.62;101869.38;146619;570;46020;-79
2021/11/18 08:29:41;;;;;;;;;13.50;12.50;;;;;18.79;63.79;101874.13;146615;609;46016;-78
2021/11/18 08:32:15;;;;;;;;;18.25;16.25;;;;;18.92;63.03;101865.81;146615;582;46021;-79
2021/11/18 08:34:50;;;;;;;;;19.00;17.50;;;;;19.10;64.08;101860.31;146614;653;46010;-80
2021/11/18 08:37:24;;;;;;;;;16.50;15.25;;;;;19.36;63.19;101866.44;146617;676;46021;-78
2021/11/18 08:39:58;;;;;;;;;18.75;17.00;;;;;19.46;62.35;101841.34;146612;571;46017;-79
2021/11/18 08:42:33;;;;;;;;;16.00;14.25;;;;;19.78;62.56;101866.12;146617;673;46020;-80
2021/11/18 08:45:10;;;;;;;;;20.00;18.75;;;;;19.97;61.46;101870.22;146614;699;46011;-78
2021/11/18 08:47:44;;;;;;;;;20.75;17.75;;;;;20.14;61.31;101854.91;146617;597;46020;-78
2021/11/18 08:50:24;;;;;;;;;20.25;19.25;;;;;20.32;60.34;101865.13;146613;606;46016;-78
2021/11/18 08:52:58;;;;;;;;;21.00;19.00;;;;;20.42;61.05;101867.16;146615;574;46021;-78
2021/11/18 08:55:36;;;;;;;;;15.00;15.00;;;;;20.54;60.90;101871.94;146615;700;46010;-78
2021/11/18 08:58:15;;;;;;;;;24.00;22.00;;;;;20.58;59.94;101872.91;146615;588;46008;-79
2021/11/18 09:00:53;;;;;;;;;21.00;18.50;;;;;20.43;58.53;101881.22;146608;622;46017;-77
2021/11/18 09:03:33;;;;;;;;;20.00;19.75;;;;;20.17;59.38;101883.09;146614;676;46020;-75
2021/11/18 09:06:09;;;;;;;;;22.25;19.25;;;;;20.05;61.40;101895.03;146611;632;46016;-75
2021/11/18 09:08:43;;;;;;;;;19.75;18.75;;;;;20.10;61.00;101886.41;146615;567;46008;-74
2021/11/18 09:11:19;;;;;;;;;17.50;17.25;;;;;20.16;60.59;101876.94;146615;602;46016;-75
2021/11/18 09:13:55;;;;;;;;;18.50;16.00;;;;;20.11;60.65;101875.88;146617;582;46008;-75
2021/11/18 09:16:30;;;;;;;;;15.50;15.25;;;;;19.97;58.58;101864.94;146613;580;46017;-75
2021/11/18 09:19:05;;;;;;;;;16.00;15.00;;;;;19.87;61.07;101873.38;146616;572;47008;-74
2021/11/18 09:21:40;;;;;;;;;16.00;12.50;;;;;19.75;59.41;101871.28;146613;577;46010;-76
2021/11/18 09:24:28;;;;;;;;;21.75;17.50;;;;;19.09;61.18;101777.00;146614;609;46020;-75
2021/11/18 09:27:21;;;;;;;;;15.50;13.25;;;;;19.43;59.17;101857.03;146614;591;46016;-75
2021/11/18 09:29:56;;;;;;;;;13.25;11.50;;;;;19.39;61.99;101861.28;146620;579;46010;-74
2021/11/18 09:32:30;;;;;;;;;12.67;11.33;;;;;19.60;61.11;101849.69;146614;593;46016;-75
2021/11/18 09:35:08;;;;;;;;;14.25;13.25;;;;;19.89;60.70;101855.91;146615;566;46020;-74
2021/11/18 09:37:42;;;;;;;;;13.00;12.25;;;;;20.16;58.88;101845.34;146611;567;46017;-75
2021/11/18 09:40:22;;;;;;;;;11.50;10.50;;;;;20.43;58.56;101853.13;146619;618;46008;-74
2021/11/18 09:43:54;;;;;;;;;13.00;9.67;;;;;19.96;58.74;101755.22;146612;589;46016;-74
2021/11/18 09:47:04;;;;;;;;;13.00;11.00;;;;;20.25;60.54;101844.72;146622;582;46008;-75
2021/11/18 09:50:15;;;;;;;;;10.67;10.00;;;;;19.95;61.07;101847.31;146614;644;46016;-80
2021/11/18 09:53:12;;;;;;;;;11.75;9.50;;;;;18.66;60.33;101672.16;146617;631;46021;-77
2021/11/18 09:56:21;;;;;;;;;18.50;16.75;;;;;19.37;60.81;101847.19;146618;685;47908;-76
2021/11/18 09:59:18;;;;;;;;;18.75;15.00;;;;;19.12;62.25;101840.22;146618;578;46020;-76
2021/11/18 10:02:20;;;;;;;;;12.33;11.67;;;;;18.89;60.74;101826.28;146614;577;46909;-76
2021/11/18 10:05:05;;;;;;;;;17.75;14.75;;;;;18.63;62.84;101821.84;146615;637;46020;-78
2021/11/18 10:08:03;;;;;;;;;16.00;14.67;;;;;18.60;62.81;101822.63;146614;569;46010;-76
2021/11/18 10:10:52;;;;;;;;;15.50;14.25;;;;;18.46;59.84;101808.06;146618;663;46020;-77
2021/11/18 10:14:12;;;;;;;;;19.50;17.25;;;;;17.49;63.88;101661.88;146615;574;45907;-74
2021/11/18 10:16:53;;;;;;;;;18.50;16.00;;;;;18.29;61.02;101825.84;146619;564;46008;-81
2021/11/18 10:19:37;;;;;;;;;18.00;15.75;;;;;18.20;62.95;101815.00;146614;576;46010;-76
2021/11/18 10:22:11;;;;;;;;;14.25;14.00;;;;;18.17;63.39;101818.41;146620;564;46021;-78
2021/11/18 10:24:48;;;;;;;;;20.50;18.75;;;;;18.16;63.12;101823.56;146612;606;47010;-78
2021/11/18 10:27:42;;;;;;;;;19.25;16.25;;;;;18.16;63.56;101815.69;146616;563;46020;-78
2021/11/18 10:30:48;;;;;;;;;14.00;13.00;;;;;18.14;64.67;101815.66;146613;675;46017;-79
2021/11/18 10:33:28;;;;;;;;;16.50;13.75;;;;;18.08;62.30;101806.66;146617;592;46020;-78
2021/11/18 10:36:16;;;;;;;;;17.75;15.50;;;;;17.94;62.33;101806.13;146614;647;47011;-78
2021/11/18 10:39:26;;;;;;;;;14.50;14.00;;;;;17.79;64.31;101803.81;146617;685;46020;-79
2021/11/18 10:42:16;;;;;;;;;16.00;15.00;;;;;17.64;64.28;101801.44;146612;628;47016;-81
2021/11/18 10:45:37;;;;;;;;;16.50;15.75;;;;;16.47;64.75;101612.38;146618;716;46021;-79
2021/11/18 10:48:32;;;;;;;;;15.75;15.75;;;;;17.37;63.23;101800.34;146612;644;46016;-77
2021/11/18 10:51:29;;;;;;;;;16.50;15.25;;;;;17.33;65.83;101791.47;146611;636;48008;-78
2021/11/18 10:54:07;;;;;;;;;14.50;14.25;;;;;17.29;65.16;101794.81;146615;649;46010;-80
2021/11/18 10:57:07;;;;;;;;;20.50;16.00;;;;;16.75;65.63;101703.47;146616;635;47008;-79
2021/11/18 10:59:45;;;;;;;;;21.25;16.75;;;;;17.19;65.56;101784.75;146610;609;46018;-79
2021/11/18 11:02:33;;;;;;;;;15.50;15.25;;;;;17.14;65.92;101788.94;146618;682;46012;-78
2021/11/18 11:05:32;;;;;;;;;18.50;16.00;;;;;17.13;65.56;101792.34;146610;733;47906;-78
2021/11/18 11:08:26;;;;;;;;;15.00;14.25;;;;;17.13;67.14;101785.38;146616;606;47006;-77
2021/11/18 11:11:42;;;;;;;;;18.00;15.25;;;;;17.21;67.48;101785.72;146612;705;46010;-81
2021/11/18 11:14:53;;;;;;;;;20.75;17.00;;;;;17.29;66.04;101779.97;146612;589;47008;-77
2021/11/18 11:18:05;;;;;;;;;20.75;18.00;;;;;17.37;66.60;101777.62;146613;743;47018;-77
2021/11/18 11:21:31;;;;;;;;;21.50;19.50;;;;;17.46;64.66;101771.88;146615;574;46020;-78
2021/11/18 11:24:44;;;;;;;;;20.75;18.25;;;;;17.50;64.89;101764.16;146611;628;46016;-78
2021/11/18 11:28:04;;;;;;;;;21.50;17.50;;;;;16.74;65.67;101630.94;146618;573;46008;-77
2021/11/18 11:30:49;;;;;;;;;13.00;13.00;;;;;17.55;64.84;101751.25;146611;628;46016;-78
2021/11/18 11:33:46;;;;;;;;;18.75;15.75;;;;;17.59;64.72;101747.03;146613;569;47008;-77
2021/11/18 11:36:49;;;;;;;;;16.75;15.25;;;;;17.58;64.30;101748.75;146612;677;46017;-78
2021/11/18 11:39:40;;;;;;;;;21.75;20.00;;;;;17.50;63.79;101740.56;146616;682;46020;-79
2021/11/18 11:43:12;;;;;;;;;16.50;14.25;;;;;17.01;64.38;101664.37;146610;594;46017;-79
2021/11/18 11:46:18;;;;;;;;;16.75;15.25;;;;;17.30;63.67;101731.03;146614;588;46020;-78
2021/11/18 11:49:34;;;;;;;;;16.50;13.50;;;;;17.27;66.14;101728.31;146613;569;46016;-79
2021/11/18 11:52:50;;;;;;;;;18.75;15.50;;;;;16.40;65.34;101579.81;146618;586;46009;-78
2021/11/18 11:55:50;;;;;;;;;18.25;17.00;;;;;17.21;64.27;101725.44;146612;586;46016;-77
2021/11/18 11:58:40;;;;;;;;;20.75;19.75;;;;;17.17;64.26;101716.56;146617;601;46020;-77
2021/11/18 12:02:07;;;;;;;;;17.25;14.00;;;;;17.12;64.52;101710.22;146612;577;46010;-77
2021/11/18 12:04:58;;;;;;;;;20.00;14.75;;;;;17.09;64.19;101713.62;146614;569;47020;-78
2021/11/18 12:08:15;;;;;;;;;16.50;14.50;;;;;17.07;65.28;101722.25;146610;632;46017;-78